sensor_id;sensor_type;location;lat;lon;timestamp;P1;durP1;ratioP1;P2;durP2;ratioP2
19525;SDS011;9907;42.676;26.348;2022-07-23T00:00:13;2.83;;;2.13;;
19525;SDS011;9907;42.676;26.348;2022-07-23T00:02:39;5.43;;;2.17;;
19525;SDS011;9907;42.676;26.348;2022-07-23T00:05:05;1.97;;;1.67;;
19525;SDS011;9907;42.676;26.348;2022-07-23T00:07:31;2.57;;;2.00;;
19525;SDS011;9907;42.676;26.348;2022-07-23T00:09:56;2.73;;;2.23;;
19525;SDS011;9907;42.676;26.348;2022-07-23T00:12:21;2.63;;;1.80;;
19525;SDS011;9907;42.676;26.348;2022-07-23T00:14:47;2.83;;;1.73;;
19525;SDS011;9907;42.676;26.348;2022-07-23T00:17:13;2.10;;;1.90;;
19525;SDS011;9907;42.676;26.348;2022-07-23T00:19:38;2.80;;;2.00;;
19525;SDS011;9907;42.676;26.348;2022-07-23T00:22:04;2.23;;;2.03;;
19525;SDS011;9907;42.676;26.348;2022-07-23T00:24:29;2.37;;;1.90;;
19525;SDS011;9907;42.676;26.348;2022-07-23T00:26:55;2.50;;;2.00;;
19525;SDS011;9907;42.676;26.348;2022-07-23T00:29:20;2.90;;;2.10;;
19525;SDS011;9907;42.676;26.348;2022-07-23T00:31:46;3.60;;;1.97;;
19525;SDS011;9907;42.676;26.348;2022-07-23T00:34:11;2.50;;;1.80;;
19525;SDS011;9907;42.676;26.348;2022-07-23T00:36:37;2.20;;;2.00;;
19525;SDS011;9907;42.676;26.348;2022-07-23T00:39:03;3.97;;;2.20;;
19525;SDS011;9907;42.676;26.348;2022-07-23T00:41:28;3.60;;;2.20;;
19525;SDS011;9907;42.676;26.348;2022-07-23T00:43:54;3.77;;;2.00;;
19525;SDS011;9907;42.676;26.348;2022-07-23T00:46:20;6.70;;;2.27;;
19525;SDS011;9907;42.676;26.348;2022-07-23T00:48:46;2.83;;;2.03;;
19525;SDS011;9907;42.676;26.348;2022-07-23T00:51:11;2.50;;;2.20;;
19525;SDS011;9907;42.676;26.348;2022-07-23T00:53:37;2.67;;;1.80;;
19525;SDS011;9907;42.676;26.348;2022-07-23T00:56:02;3.20;;;2.03;;
19525;SDS011;9907;42.676;26.348;2022-07-23T00:58:28;3.30;;;2.07;;
19525;SDS011;9907;42.676;26.348;2022-07-23T01:00:54;3.07;;;2.03;;
19525;SDS011;9907;42.676;26.348;2022-07-23T01:03:19;5.60;;;2.30;;
19525;SDS011;9907;42.676;26.348;2022-07-23T01:05:45;2.37;;;2.00;;
19525;SDS011;9907;42.676;26.348;2022-07-23T01:08:11;2.90;;;2.20;;
19525;SDS011;9907;42.676;26.348;2022-07-23T01:10:37;2.30;;;2.10;;
19525;SDS011;9907;42.676;26.348;2022-07-23T01:13:06;3.93;;;2.00;;
19525;SDS011;9907;42.676;26.348;2022-07-23T01:15:34;1.93;;;1.83;;
19525;SDS011;9907;42.676;26.348;2022-07-23T01:18:02;3.13;;;2.20;;
19525;SDS011;9907;42.676;26.348;2022-07-23T01:20:29;3.00;;;1.90;;
19525;SDS011;9907;42.676;26.348;2022-07-23T01:22:55;2.83;;;2.00;;
19525;SDS011;9907;42.676;26.348;2022-07-23T01:25:21;4.03;;;1.83;;
19525;SDS011;9907;42.676;26.348;2022-07-23T01:27:47;3.53;;;2.13;;
19525;SDS011;9907;42.676;26.348;2022-07-23T01:30:13;2.20;;;1.80;;
19525;SDS011;9907;42.676;26.348;2022-07-23T01:32:39;2.63;;;1.97;;
19525;SDS011;9907;42.676;26.348;2022-07-23T01:35:05;2.53;;;2.07;;
19525;SDS011;9907;42.676;26.348;2022-07-23T01:37:31;2.50;;;2.17;;
19525;SDS011;9907;42.676;26.348;2022-07-23T01:39:57;4.47;;;2.03;;
19525;SDS011;9907;42.676;26.348;2022-07-23T01:42:22;2.33;;;2.10;;
19525;SDS011;9907;42.676;26.348;2022-07-23T01:44:48;3.40;;;2.00;;
19525;SDS011;9907;42.676;26.348;2022-07-23T01:47:14;4.27;;;2.13;;
19525;SDS011;9907;42.676;26.348;2022-07-23T01:49:39;8.40;;;2.90;;
19525;SDS011;9907;42.676;26.348;2022-07-23T01:52:05;2.93;;;2.00;;
19525;SDS011;9907;42.676;26.348;2022-07-23T01:54:34;3.30;;;2.10;;
19525;SDS011;9907;42.676;26.348;2022-07-23T01:56:59;3.17;;;2.57;;
19525;SDS011;9907;42.676;26.348;2022-07-23T01:59:25;4.77;;;2.00;;
19525;SDS011;9907;42.676;26.348;2022-07-23T02:01:52;2.33;;;2.00;;
19525;SDS011;9907;42.676;26.348;2022-07-23T02:04:18;4.10;;;2.57;;
19525;SDS011;9907;42.676;26.348;2022-07-23T02:06:47;2.63;;;2.10;;
19525;SDS011;9907;42.676;26.348;2022-07-23T02:09:13;2.53;;;2.33;;
19525;SDS011;9907;42.676;26.348;2022-07-23T02:11:38;3.27;;;2.00;;
19525;SDS011;9907;42.676;26.348;2022-07-23T02:14:04;5.63;;;2.30;;
19525;SDS011;9907;42.676;26.348;2022-07-23T02:16:29;3.07;;;2.00;;
19525;SDS011;9907;42.676;26.348;2022-07-23T02:18:55;2.40;;;2.20;;
19525;SDS011;9907;42.676;26.348;2022-07-23T02:21:20;3.27;;;2.07;;
19525;SDS011;9907;42.676;26.348;2022-07-23T02:23:46;2.43;;;2.07;;
19525;SDS011;9907;42.676;26.348;2022-07-23T02:26:11;2.87;;;2.00;;
19525;SDS011;9907;42.676;26.348;2022-07-23T02:28:37;2.97;;;2.10;;
19525;SDS011;9907;42.676;26.348;2022-07-23T02:31:02;5.47;;;2.40;;
19525;SDS011;9907;42.676;26.348;2022-07-23T02:33:28;3.03;;;2.27;;
19525;SDS011;9907;42.676;26.348;2022-07-23T02:35:54;2.80;;;2.33;;
19525;SDS011;9907;42.676;26.348;2022-07-23T02:38:19;3.13;;;2.40;;
19525;SDS011;9907;42.676;26.348;2022-07-23T02:40:45;4.70;;;2.87;;
19525;SDS011;9907;42.676;26.348;2022-07-23T02:43:10;2.37;;;2.17;;
19525;SDS011;9907;42.676;26.348;2022-07-23T02:45:36;2.33;;;2.10;;
19525;SDS011;9907;42.676;26.348;2022-07-23T02:48:01;4.53;;;2.00;;
19525;SDS011;9907;42.676;26.348;2022-07-23T02:50:27;3.87;;;2.40;;
19525;SDS011;9907;42.676;26.348;2022-07-23T02:52:53;2.43;;;2.03;;
19525;SDS011;9907;42.676;26.348;2022-07-23T02:55:18;4.47;;;2.40;;
19525;SDS011;9907;42.676;26.348;2022-07-23T02:57:44;5.63;;;2.57;;
19525;SDS011;9907;42.676;26.348;2022-07-23T03:00:09;5.70;;;2.73;;
19525;SDS011;9907;42.676;26.348;2022-07-23T03:02:35;2.83;;;2.10;;
19525;SDS011;9907;42.676;26.348;2022-07-23T03:05:01;5.30;;;2.43;;
19525;SDS011;9907;42.676;26.348;2022-07-23T03:07:26;4.27;;;2.20;;
19525;SDS011;9907;42.676;26.348;2022-07-23T03:09:52;3.30;;;2.30;;
19525;SDS011;9907;42.676;26.348;2022-07-23T03:12:17;3.73;;;2.17;;
19525;SDS011;9907;42.676;26.348;2022-07-23T03:14:43;5.37;;;2.77;;
19525;SDS011;9907;42.676;26.348;2022-07-23T03:17:09;6.67;;;2.30;;
19525;SDS011;9907;42.676;26.348;2022-07-23T03:19:34;4.83;;;2.53;;
19525;SDS011;9907;42.676;26.348;2022-07-23T03:22:00;4.40;;;2.17;;
19525;SDS011;9907;42.676;26.348;2022-07-23T03:24:25;4.03;;;2.03;;
19525;SDS011;9907;42.676;26.348;2022-07-23T03:27:11;6.20;;;2.53;;
19525;SDS011;9907;42.676;26.348;2022-07-23T03:29:36;4.30;;;2.50;;
19525;SDS011;9907;42.676;26.348;2022-07-23T03:32:03;6.37;;;2.43;;
19525;SDS011;9907;42.676;26.348;2022-07-23T03:34:29;3.37;;;2.50;;
19525;SDS011;9907;42.676;26.348;2022-07-23T03:36:54;4.97;;;2.73;;
19525;SDS011;9907;42.676;26.348;2022-07-23T03:39:20;5.17;;;2.30;;
19525;SDS011;9907;42.676;26.348;2022-07-23T03:41:45;2.73;;;2.53;;
19525;SDS011;9907;42.676;26.348;2022-07-23T03:44:11;4.90;;;3.00;;
19525;SDS011;9907;42.676;26.348;2022-07-23T03:46:36;3.53;;;2.80;;
19525;SDS011;9907;42.676;26.348;2022-07-23T03:49:01;3.07;;;2.73;;
19525;SDS011;9907;42.676;26.348;2022-07-23T03:51:27;3.50;;;2.30;;
19525;SDS011;9907;42.676;26.348;2022-07-23T03:53:52;2.87;;;2.43;;
19525;SDS011;9907;42.676;26.348;2022-07-23T03:56:19;4.07;;;2.20;;
19525;SDS011;9907;42.676;26.348;2022-07-23T03:58:45;6.37;;;3.10;;
19525;SDS011;9907;42.676;26.348;2022-07-23T04:01:10;4.53;;;2.70;;
19525;SDS011;9907;42.676;26.348;2022-07-23T04:03:36;2.90;;;2.47;;
19525;SDS011;9907;42.676;26.348;2022-07-23T04:06:02;3.83;;;2.50;;
19525;SDS011;9907;42.676;26.348;2022-07-23T04:08:28;3.00;;;2.37;;
19525;SDS011;9907;42.676;26.348;2022-07-23T04:10:53;6.33;;;2.67;;
19525;SDS011;9907;42.676;26.348;2022-07-23T04:13:20;3.00;;;2.60;;
19525;SDS011;9907;42.676;26.348;2022-07-23T04:15:46;4.40;;;2.30;;
19525;SDS011;9907;42.676;26.348;2022-07-23T04:18:12;6.87;;;2.47;;
19525;SDS011;9907;42.676;26.348;2022-07-23T04:20:37;3.87;;;2.60;;
19525;SDS011;9907;42.676;26.348;2022-07-23T04:23:03;3.37;;;2.63;;
19525;SDS011;9907;42.676;26.348;2022-07-23T04:25:28;6.60;;;3.03;;
19525;SDS011;9907;42.676;26.348;2022-07-23T04:27:54;3.20;;;2.30;;
19525;SDS011;9907;42.676;26.348;2022-07-23T04:30:19;3.10;;;2.10;;
19525;SDS011;9907;42.676;26.348;2022-07-23T04:32:45;9.63;;;2.77;;
19525;SDS011;9907;42.676;26.348;2022-07-23T04:35:10;2.40;;;2.20;;
19525;SDS011;9907;42.676;26.348;2022-07-23T04:37:36;2.77;;;2.30;;
19525;SDS011;9907;42.676;26.348;2022-07-23T04:40:01;5.93;;;2.60;;
19525;SDS011;9907;42.676;26.348;2022-07-23T04:42:27;6.70;;;2.73;;
19525;SDS011;9907;42.676;26.348;2022-07-23T04:44:52;6.53;;;3.47;;
19525;SDS011;9907;42.676;26.348;2022-07-23T04:47:18;4.67;;;2.87;;
19525;SDS011;9907;42.676;26.348;2022-07-23T04:49:43;7.97;;;3.00;;
19525;SDS011;9907;42.676;26.348;2022-07-23T04:52:09;7.93;;;2.80;;
19525;SDS011;9907;42.676;26.348;2022-07-23T04:54:34;4.63;;;2.40;;
19525;SDS011;9907;42.676;26.348;2022-07-23T04:57:00;4.37;;;2.90;;
19525;SDS011;9907;42.676;26.348;2022-07-23T04:59:25;5.23;;;2.50;;
19525;SDS011;9907;42.676;26.348;2022-07-23T05:01:50;5.90;;;2.57;;
19525;SDS011;9907;42.676;26.348;2022-07-23T05:04:16;4.00;;;2.53;;
19525;SDS011;9907;42.676;26.348;2022-07-23T05:06:41;5.53;;;2.70;;
19525;SDS011;9907;42.676;26.348;2022-07-23T05:09:07;5.60;;;3.07;;
19525;SDS011;9907;42.676;26.348;2022-07-23T05:11:32;8.97;;;2.60;;
19525;SDS011;9907;42.676;26.348;2022-07-23T05:13:58;3.97;;;2.77;;
19525;SDS011;9907;42.676;26.348;2022-07-23T05:16:23;6.20;;;3.20;;
19525;SDS011;9907;42.676;26.348;2022-07-23T05:18:49;5.50;;;2.87;;
19525;SDS011;9907;42.676;26.348;2022-07-23T05:21:14;7.40;;;2.77;;
19525;SDS011;9907;42.676;26.348;2022-07-23T05:23:40;8.05;;;3.42;;
19525;SDS011;9907;42.676;26.348;2022-07-23T05:26:05;5.93;;;3.22;;
19525;SDS011;9907;42.676;26.348;2022-07-23T05:28:31;9.10;;;3.35;;
19525;SDS011;9907;42.676;26.348;2022-07-23T05:30:56;6.53;;;3.13;;
19525;SDS011;9907;42.676;26.348;2022-07-23T05:33:22;5.10;;;2.85;;
19525;SDS011;9907;42.676;26.348;2022-07-23T05:35:47;8.52;;;3.10;;
19525;SDS011;9907;42.676;26.348;2022-07-23T05:38:13;6.65;;;3.70;;
19525;SDS011;9907;42.676;26.348;2022-07-23T05:40:38;5.10;;;3.83;;
19525;SDS011;9907;42.676;26.348;2022-07-23T05:43:04;5.75;;;3.50;;
19525;SDS011;9907;42.676;26.348;2022-07-23T05:45:29;5.65;;;3.38;;
19525;SDS011;9907;42.676;26.348;2022-07-23T05:47:55;5.13;;;3.45;;
19525;SDS011;9907;42.676;26.348;2022-07-23T05:50:20;6.95;;;3.40;;
19525;SDS011;9907;42.676;26.348;2022-07-23T05:52:46;6.05;;;3.10;;
19525;SDS011;9907;42.676;26.348;2022-07-23T05:55:12;7.07;;;3.13;;
19525;SDS011;9907;42.676;26.348;2022-07-23T05:57:38;5.90;;;3.08;;
19525;SDS011;9907;42.676;26.348;2022-07-23T06:00:05;6.40;;;3.72;;
19525;SDS011;9907;42.676;26.348;2022-07-23T06:02:31;3.80;;;2.90;;
19525;SDS011;9907;42.676;26.348;2022-07-23T06:04:57;3.28;;;2.80;;
19525;SDS011;9907;42.676;26.348;2022-07-23T06:07:22;8.43;;;3.45;;
19525;SDS011;9907;42.676;26.348;2022-07-23T06:09:48;5.80;;;3.10;;
19525;SDS011;9907;42.676;26.348;2022-07-23T06:12:14;6.72;;;3.10;;
19525;SDS011;9907;42.676;26.348;2022-07-23T06:14:40;7.43;;;3.08;;
19525;SDS011;9907;42.676;26.348;2022-07-23T06:17:06;4.88;;;3.25;;
19525;SDS011;9907;42.676;26.348;2022-07-23T06:19:31;6.65;;;3.70;;
19525;SDS011;9907;42.676;26.348;2022-07-23T06:21:57;9.25;;;3.45;;
19525;SDS011;9907;42.676;26.348;2022-07-23T06:24:22;5.18;;;3.25;;
19525;SDS011;9907;42.676;26.348;2022-07-23T06:26:48;9.85;;;3.67;;
19525;SDS011;9907;42.676;26.348;2022-07-23T06:29:13;6.05;;;3.60;;
19525;SDS011;9907;42.676;26.348;2022-07-23T06:31:39;8.07;;;3.17;;
19525;SDS011;9907;42.676;26.348;2022-07-23T06:34:04;9.40;;;3.25;;
19525;SDS011;9907;42.676;26.348;2022-07-23T06:36:30;6.53;;;3.28;;
19525;SDS011;9907;42.676;26.348;2022-07-23T06:38:55;5.85;;;3.15;;
19525;SDS011;9907;42.676;26.348;2022-07-23T06:41:21;6.25;;;3.08;;
19525;SDS011;9907;42.676;26.348;2022-07-23T06:43:47;5.45;;;3.10;;
19525;SDS011;9907;42.676;26.348;2022-07-23T06:46:13;4.50;;;2.90;;
19525;SDS011;9907;42.676;26.348;2022-07-23T06:48:39;4.72;;;2.75;;
19525;SDS011;9907;42.676;26.348;2022-07-23T06:51:04;3.45;;;2.92;;
19525;SDS011;9907;42.676;26.348;2022-07-23T06:53:30;3.95;;;3.03;;
19525;SDS011;9907;42.676;26.348;2022-07-23T06:55:55;3.80;;;2.90;;
19525;SDS011;9907;42.676;26.348;2022-07-23T06:58:21;3.78;;;2.88;;
19525;SDS011;9907;42.676;26.348;2022-07-23T07:00:46;3.50;;;2.80;;
19525;SDS011;9907;42.676;26.348;2022-07-23T07:03:12;5.28;;;3.20;;
19525;SDS011;9907;42.676;26.348;2022-07-23T07:05:37;4.65;;;3.58;;
19525;SDS011;9907;42.676;26.348;2022-07-23T07:08:04;4.32;;;3.13;;
19525;SDS011;9907;42.676;26.348;2022-07-23T07:10:30;4.82;;;3.03;;
19525;SDS011;9907;42.676;26.348;2022-07-23T07:12:56;4.85;;;3.00;;
19525;SDS011;9907;42.676;26.348;2022-07-23T07:15:21;5.07;;;3.10;;
19525;SDS011;9907;42.676;26.348;2022-07-23T07:17:47;5.60;;;3.00;;
19525;SDS011;9907;42.676;26.348;2022-07-23T07:20:13;5.78;;;3.20;;
19525;SDS011;9907;42.676;26.348;2022-07-23T07:22:38;3.63;;;2.85;;
19525;SDS011;9907;42.676;26.348;2022-07-23T07:25:04;5.05;;;2.90;;
19525;SDS011;9907;42.676;26.348;2022-07-23T07:27:30;5.35;;;2.80;;
19525;SDS011;9907;42.676;26.348;2022-07-23T07:29:56;3.88;;;3.28;;
19525;SDS011;9907;42.676;26.348;2022-07-23T07:32:21;6.95;;;3.28;;
19525;SDS011;9907;42.676;26.348;2022-07-23T07:34:47;4.65;;;3.28;;
19525;SDS011;9907;42.676;26.348;2022-07-23T07:37:13;3.70;;;2.83;;
19525;SDS011;9907;42.676;26.348;2022-07-23T07:39:38;4.35;;;2.88;;
19525;SDS011;9907;42.676;26.348;2022-07-23T07:42:04;5.97;;;3.20;;
19525;SDS011;9907;42.676;26.348;2022-07-23T07:44:30;7.00;;;3.33;;
19525;SDS011;9907;42.676;26.348;2022-07-23T07:46:55;4.18;;;3.40;;
19525;SDS011;9907;42.676;26.348;2022-07-23T07:49:21;6.50;;;3.30;;
19525;SDS011;9907;42.676;26.348;2022-07-23T07:51:47;5.40;;;3.30;;
19525;SDS011;9907;42.676;26.348;2022-07-23T07:54:12;4.00;;;3.08;;
19525;SDS011;9907;42.676;26.348;2022-07-23T07:56:38;5.55;;;3.30;;
19525;SDS011;9907;42.676;26.348;2022-07-23T07:59:03;8.45;;;3.53;;
19525;SDS011;9907;42.676;26.348;2022-07-23T08:01:29;3.78;;;3.20;;
19525;SDS011;9907;42.676;26.348;2022-07-23T08:03:54;7.43;;;3.97;;
19525;SDS011;9907;42.676;26.348;2022-07-23T08:06:20;8.60;;;3.63;;
19525;SDS011;9907;42.676;26.348;2022-07-23T08:08:47;6.57;;;3.78;;
19525;SDS011;9907;42.676;26.348;2022-07-23T08:11:13;6.80;;;3.83;;
19525;SDS011;9907;42.676;26.348;2022-07-23T08:13:38;9.13;;;4.88;;
19525;SDS011;9907;42.676;26.348;2022-07-23T08:16:04;8.73;;;4.68;;
19525;SDS011;9907;42.676;26.348;2022-07-23T08:18:29;13.68;;;4.88;;
19525;SDS011;9907;42.676;26.348;2022-07-23T08:20:55;12.90;;;5.93;;
19525;SDS011;9907;42.676;26.348;2022-07-23T08:23:20;7.05;;;4.00;;
19525;SDS011;9907;42.676;26.348;2022-07-23T08:25:46;10.25;;;6.35;;
19525;SDS011;9907;42.676;26.348;2022-07-23T08:28:12;7.97;;;4.53;;
19525;SDS011;9907;42.676;26.348;2022-07-23T08:30:39;12.90;;;5.18;;
19525;SDS011;9907;42.676;26.348;2022-07-23T08:33:16;12.35;;;5.35;;
19525;SDS011;9907;42.676;26.348;2022-07-23T08:35:44;15.30;;;5.53;;
19525;SDS011;9907;42.676;26.348;2022-07-23T08:38:12;9.73;;;4.40;;
19525;SDS011;9907;42.676;26.348;2022-07-23T08:40:43;8.60;;;3.97;;
19525;SDS011;9907;42.676;26.348;2022-07-23T08:43:11;7.78;;;4.03;;
19525;SDS011;9907;42.676;26.348;2022-07-23T08:45:38;12.25;;;4.57;;
19525;SDS011;9907;42.676;26.348;2022-07-23T08:48:08;11.82;;;5.10;;
19525;SDS011;9907;42.676;26.348;2022-07-23T08:50:37;6.43;;;3.58;;
19525;SDS011;9907;42.676;26.348;2022-07-23T08:53:07;7.53;;;4.32;;
19525;SDS011;9907;42.676;26.348;2022-07-23T08:55:33;13.68;;;4.43;;
19525;SDS011;9907;42.676;26.348;2022-07-23T08:57:59;10.43;;;4.90;;
19525;SDS011;9907;42.676;26.348;2022-07-23T09:00:25;7.05;;;4.38;;
19525;SDS011;9907;42.676;26.348;2022-07-23T09:02:51;12.48;;;4.57;;
19525;SDS011;9907;42.676;26.348;2022-07-23T09:05:17;6.85;;;4.18;;
19525;SDS011;9907;42.676;26.348;2022-07-23T09:10:43;6.40;;;3.67;;
19525;SDS011;9907;42.676;26.348;2022-07-23T09:13:31;4.63;;;3.42;;
19525;SDS011;9907;42.676;26.348;2022-07-23T09:16:11;6.85;;;3.60;;
19525;SDS011;9907;42.676;26.348;2022-07-23T09:21:13;4.47;;;3.22;;
19525;SDS011;9907;42.676;26.348;2022-07-23T09:23:43;6.45;;;3.30;;
19525;SDS011;9907;42.676;26.348;2022-07-23T09:34:14;7.47;;;6.13;;
19525;SDS011;9907;42.676;26.348;2022-07-23T09:36:48;10.05;;;6.70;;
19525;SDS011;9907;42.676;26.348;2022-07-23T09:39:15;5.85;;;3.80;;
19525;SDS011;9907;42.676;26.348;2022-07-23T09:41:46;5.13;;;3.97;;
19525;SDS011;9907;42.676;26.348;2022-07-23T09:44:14;5.60;;;3.60;;
19525;SDS011;9907;42.676;26.348;2022-07-23T09:46:41;7.28;;;3.65;;
19525;SDS011;9907;42.676;26.348;2022-07-23T09:49:26;6.82;;;3.70;;
19525;SDS011;9907;42.676;26.348;2022-07-23T09:51:59;7.18;;;3.65;;
19525;SDS011;9907;42.676;26.348;2022-07-23T09:56:59;6.18;;;3.80;;
19525;SDS011;9907;42.676;26.348;2022-07-23T09:59:28;4.10;;;3.58;;
19525;SDS011;9907;42.676;26.348;2022-07-23T10:01:56;7.05;;;3.75;;
19525;SDS011;9907;42.676;26.348;2022-07-23T10:04:25;5.30;;;4.20;;
19525;SDS011;9907;42.676;26.348;2022-07-23T10:06:52;4.20;;;3.80;;
19525;SDS011;9907;42.676;26.348;2022-07-23T10:09:27;6.07;;;3.78;;
19525;SDS011;9907;42.676;26.348;2022-07-23T10:11:55;6.88;;;3.53;;
19525;SDS011;9907;42.676;26.348;2022-07-23T10:14:30;4.25;;;3.85;;
19525;SDS011;9907;42.676;26.348;2022-07-23T10:16:57;10.43;;;4.05;;
19525;SDS011;9907;42.676;26.348;2022-07-23T10:19:23;14.35;;;8.63;;
19525;SDS011;9907;42.676;26.348;2022-07-23T10:21:51;6.93;;;5.22;;
19525;SDS011;9907;42.676;26.348;2022-07-23T10:30:02;6.03;;;3.95;;
19525;SDS011;9907;42.676;26.348;2022-07-23T10:35:53;6.25;;;4.10;;
19525;SDS011;9907;42.676;26.348;2022-07-23T10:40:55;5.72;;;3.92;;
19525;SDS011;9907;42.676;26.348;2022-07-23T10:43:21;5.80;;;3.92;;
19525;SDS011;9907;42.676;26.348;2022-07-23T10:45:47;7.07;;;4.68;;
19525;SDS011;9907;42.676;26.348;2022-07-23T10:53:56;6.68;;;4.68;;
19525;SDS011;9907;42.676;26.348;2022-07-23T10:59:16;5.57;;;4.20;;
19525;SDS011;9907;42.676;26.348;2022-07-23T11:01:41;7.75;;;4.88;;
19525;SDS011;9907;42.676;26.348;2022-07-23T11:04:07;5.07;;;4.20;;
19525;SDS011;9907;42.676;26.348;2022-07-23T11:09:23;4.78;;;3.88;;
19525;SDS011;9907;42.676;26.348;2022-07-23T11:17:25;5.85;;;3.95;;
19525;SDS011;9907;42.676;26.348;2022-07-23T11:20:24;6.38;;;4.40;;
19525;SDS011;9907;42.676;26.348;2022-07-23T11:22:49;6.35;;;4.40;;
19525;SDS011;9907;42.676;26.348;2022-07-23T11:27:50;7.60;;;4.68;;
19525;SDS011;9907;42.676;26.348;2022-07-23T11:32:51;8.88;;;4.90;;
19525;SDS011;9907;42.676;26.348;2022-07-23T11:35:21;7.55;;;4.10;;
19525;SDS011;9907;42.676;26.348;2022-07-23T11:37:48;8.73;;;4.93;;
19525;SDS011;9907;42.676;26.348;2022-07-23T11:40:18;11.40;;;4.32;;
19525;SDS011;9907;42.676;26.348;2022-07-23T11:43:17;10.10;;;4.65;;
19525;SDS011;9907;42.676;26.348;2022-07-23T11:45:37;5.35;;;4.35;;
19525;SDS011;9907;42.676;26.348;2022-07-23T11:48:17;11.60;;;4.53;;
19525;SDS011;9907;42.676;26.348;2022-07-23T11:50:45;6.35;;;4.47;;
19525;SDS011;9907;42.676;26.348;2022-07-23T11:53:10;6.65;;;4.32;;
19525;SDS011;9907;42.676;26.348;2022-07-23T11:55:37;7.43;;;5.28;;
19525;SDS011;9907;42.676;26.348;2022-07-23T11:58:03;7.80;;;4.95;;
19525;SDS011;9907;42.676;26.348;2022-07-23T12:00:29;9.20;;;4.60;;
19525;SDS011;9907;42.676;26.348;2022-07-23T12:02:56;7.75;;;4.80;;
19525;SDS011;9907;42.676;26.348;2022-07-23T12:05:35;9.05;;;5.05;;
19525;SDS011;9907;42.676;26.348;2022-07-23T12:08:03;6.32;;;5.05;;
19525;SDS011;9907;42.676;26.348;2022-07-23T12:13:00;6.55;;;4.63;;
19525;SDS011;9907;42.676;26.348;2022-07-23T12:15:32;9.68;;;4.85;;
19525;SDS011;9907;42.676;26.348;2022-07-23T12:18:16;9.98;;;4.45;;
19525;SDS011;9907;42.676;26.348;2022-07-23T12:20:48;8.43;;;4.85;;
19525;SDS011;9907;42.676;26.348;2022-07-23T12:23:16;4.45;;;4.05;;
19525;SDS011;9907;42.676;26.348;2022-07-23T12:25:43;5.82;;;4.20;;
19525;SDS011;9907;42.676;26.348;2022-07-23T12:28:17;6.90;;;4.45;;
19525;SDS011;9907;42.676;26.348;2022-07-23T12:35:52;9.35;;;5.10;;
19525;SDS011;9907;42.676;26.348;2022-07-23T12:38:19;6.47;;;4.03;;
19525;SDS011;9907;42.676;26.348;2022-07-23T12:40:53;6.82;;;4.38;;
19525;SDS011;9907;42.676;26.348;2022-07-23T12:43:26;9.48;;;4.47;;
19525;SDS011;9907;42.676;26.348;2022-07-23T12:46:01;7.53;;;4.43;;
19525;SDS011;9907;42.676;26.348;2022-07-23T12:48:38;6.35;;;4.18;;
19525;SDS011;9907;42.676;26.348;2022-07-23T12:51:07;7.25;;;4.90;;
19525;SDS011;9907;42.676;26.348;2022-07-23T12:53:42;7.88;;;4.63;;
19525;SDS011;9907;42.676;26.348;2022-07-23T12:56:14;6.55;;;4.70;;
19525;SDS011;9907;42.676;26.348;2022-07-23T12:58:44;7.03;;;4.70;;
19525;SDS011;9907;42.676;26.348;2022-07-23T13:03:58;9.07;;;4.63;;
19525;SDS011;9907;42.676;26.348;2022-07-23T13:06:29;6.05;;;4.30;;
19525;SDS011;9907;42.676;26.348;2022-07-23T13:08:57;9.02;;;4.55;;
19525;SDS011;9907;42.676;26.348;2022-07-23T13:11:23;6.30;;;4.60;;
19525;SDS011;9907;42.676;26.348;2022-07-23T13:13:48;8.10;;;4.45;;
19525;SDS011;9907;42.676;26.348;2022-07-23T13:16:14;8.38;;;4.80;;
19525;SDS011;9907;42.676;26.348;2022-07-23T13:18:40;6.10;;;4.18;;
19525;SDS011;9907;42.676;26.348;2022-07-23T13:21:06;6.82;;;4.85;;
19525;SDS011;9907;42.676;26.348;2022-07-23T13:23:31;6.57;;;4.47;;
19525;SDS011;9907;42.676;26.348;2022-07-23T13:25:57;9.52;;;4.65;;
19525;SDS011;9907;42.676;26.348;2022-07-23T13:28:22;10.30;;;4.63;;
19525;SDS011;9907;42.676;26.348;2022-07-23T13:30:49;7.60;;;4.72;;
19525;SDS011;9907;42.676;26.348;2022-07-23T13:33:19;8.15;;;4.95;;
19525;SDS011;9907;42.676;26.348;2022-07-23T13:35:46;7.90;;;5.80;;
19525;SDS011;9907;42.676;26.348;2022-07-23T13:38:12;7.15;;;4.15;;
19525;SDS011;9907;42.676;26.348;2022-07-23T13:40:39;7.80;;;4.38;;
19525;SDS011;9907;42.676;26.348;2022-07-23T13:43:07;5.82;;;4.63;;
19525;SDS011;9907;42.676;26.348;2022-07-23T13:45:34;6.43;;;4.80;;
19525;SDS011;9907;42.676;26.348;2022-07-23T13:48:00;26.70;;;16.73;;
19525;SDS011;9907;42.676;26.348;2022-07-23T13:50:25;9.00;;;6.47;;
19525;SDS011;9907;42.676;26.348;2022-07-23T13:52:51;11.88;;;6.55;;
19525;SDS011;9907;42.676;26.348;2022-07-23T13:55:17;9.15;;;6.55;;
19525;SDS011;9907;42.676;26.348;2022-07-23T13:57:42;10.18;;;5.80;;
19525;SDS011;9907;42.676;26.348;2022-07-23T14:00:09;9.20;;;5.90;;
19525;SDS011;9907;42.676;26.348;2022-07-23T14:02:37;8.93;;;5.30;;
19525;SDS011;9907;42.676;26.348;2022-07-23T14:05:04;9.15;;;4.32;;
19525;SDS011;9907;42.676;26.348;2022-07-23T14:07:31;6.47;;;4.60;;
19525;SDS011;9907;42.676;26.348;2022-07-23T14:09:57;5.03;;;4.47;;
19525;SDS011;9907;42.676;26.348;2022-07-23T14:12:22;7.38;;;4.50;;
19525;SDS011;9907;42.676;26.348;2022-07-23T14:14:48;7.13;;;4.43;;
19525;SDS011;9907;42.676;26.348;2022-07-23T14:17:13;11.30;;;4.40;;
19525;SDS011;9907;42.676;26.348;2022-07-23T14:19:39;9.27;;;4.47;;
19525;SDS011;9907;42.676;26.348;2022-07-23T14:22:04;7.18;;;5.05;;
19525;SDS011;9907;42.676;26.348;2022-07-23T14:24:30;6.03;;;4.80;;
19525;SDS011;9907;42.676;26.348;2022-07-23T14:26:55;8.50;;;4.57;;
19525;SDS011;9907;42.676;26.348;2022-07-23T14:29:21;7.40;;;4.85;;
19525;SDS011;9907;42.676;26.348;2022-07-23T14:31:46;9.95;;;4.60;;
19525;SDS011;9907;42.676;26.348;2022-07-23T14:34:13;7.55;;;4.90;;
19525;SDS011;9907;42.676;26.348;2022-07-23T14:36:38;5.13;;;4.47;;
19525;SDS011;9907;42.676;26.348;2022-07-23T14:39:04;6.15;;;4.30;;
19525;SDS011;9907;42.676;26.348;2022-07-23T14:41:30;6.35;;;4.55;;
19525;SDS011;9907;42.676;26.348;2022-07-23T14:43:56;7.03;;;4.50;;
19525;SDS011;9907;42.676;26.348;2022-07-23T14:46:21;8.93;;;4.47;;
19525;SDS011;9907;42.676;26.348;2022-07-23T14:48:47;9.43;;;5.60;;
19525;SDS011;9907;42.676;26.348;2022-07-23T14:51:12;7.03;;;4.47;;
19525;SDS011;9907;42.676;26.348;2022-07-23T14:53:38;9.38;;;4.40;;
19525;SDS011;9907;42.676;26.348;2022-07-23T14:56:04;9.57;;;4.70;;
19525;SDS011;9907;42.676;26.348;2022-07-23T14:58:30;5.68;;;4.60;;
19525;SDS011;9907;42.676;26.348;2022-07-23T15:00:55;8.20;;;4.65;;
19525;SDS011;9907;42.676;26.348;2022-07-23T15:03:22;9.32;;;5.03;;
19525;SDS011;9907;42.676;26.348;2022-07-23T15:05:49;8.90;;;4.78;;
19525;SDS011;9907;42.676;26.348;2022-07-23T15:08:14;10.60;;;6.53;;
19525;SDS011;9907;42.676;26.348;2022-07-23T15:10:40;8.95;;;5.00;;
19525;SDS011;9907;42.676;26.348;2022-07-23T15:13:05;6.25;;;5.40;;
19525;SDS011;9907;42.676;26.348;2022-07-23T15:15:31;7.43;;;4.70;;
19525;SDS011;9907;42.676;26.348;2022-07-23T15:17:56;12.57;;;7.30;;
19525;SDS011;9907;42.676;26.348;2022-07-23T15:20:22;9.00;;;5.63;;
19525;SDS011;9907;42.676;26.348;2022-07-23T15:22:47;13.40;;;5.50;;
19525;SDS011;9907;42.676;26.348;2022-07-23T15:25:13;16.65;;;9.65;;
19525;SDS011;9907;42.676;26.348;2022-07-23T15:27:38;11.15;;;6.78;;
19525;SDS011;9907;42.676;26.348;2022-07-23T15:30:04;10.25;;;5.32;;
19525;SDS011;9907;42.676;26.348;2022-07-23T15:32:30;10.43;;;6.15;;
19525;SDS011;9907;42.676;26.348;2022-07-23T15:34:56;8.77;;;4.90;;
19525;SDS011;9907;42.676;26.348;2022-07-23T15:37:22;11.82;;;4.47;;
19525;SDS011;9907;42.676;26.348;2022-07-23T15:39:50;8.23;;;4.88;;
19525;SDS011;9907;42.676;26.348;2022-07-23T15:42:16;8.75;;;4.45;;